createdAt,value
2023-02-28T00:00:25.953Z,-6.20
2023-02-28T00:02:56.859Z,-6.20
2023-02-28T00:05:29.276Z,-6.20
2023-02-28T00:07:59.392Z,-6.20
2023-02-28T00:10:31.253Z,-6.20
2023-02-28T00:13:05.926Z,-6.20
2023-02-28T00:15:38.573Z,-6.20
2023-02-28T00:18:08.793Z,-6.20
2023-02-28T00:20:38.938Z,-6.20
2023-02-28T00:23:09.280Z,-6.20
2023-02-28T00:25:39.383Z,-6.20
2023-02-28T00:28:09.415Z,-6.20
2023-02-28T00:30:41.146Z,-6.30
2023-02-28T00:33:11.650Z,-6.20
2023-02-28T00:35:42.043Z,-6.20
2023-02-28T00:38:12.226Z,-6.20
2023-02-28T00:40:42.323Z,-6.30
2023-02-28T00:43:12.410Z,-6.20
2023-02-28T00:45:44.160Z,-6.30
2023-02-28T00:48:14.194Z,-6.30
2023-02-28T00:50:44.356Z,-6.30
2023-02-28T00:53:14.846Z,-6.30
2023-02-28T00:55:45.056Z,-6.20
2023-02-28T00:58:15.150Z,-6.20
2023-02-28T01:00:50.559Z,-6.20
2023-02-28T01:03:21.541Z,-6.10
2023-02-28T01:05:51.725Z,-6.10
2023-02-28T01:08:22.482Z,-6.10
2023-02-28T01:10:55.632Z,-6.10
2023-02-28T01:13:26.963Z,-6.10
2023-02-28T01:16:00.113Z,-6.00
2023-02-28T01:18:30.222Z,-6.00
2023-02-28T01:21:00.751Z,-6.00
2023-02-28T01:23:30.846Z,-6.00
2023-02-28T01:26:01.166Z,-6.10
2023-02-28T01:28:31.638Z,-6.10
2023-02-28T01:31:03.748Z,-6.10
2023-02-28T01:36:08.438Z,-6.10
2023-02-28T01:38:38.858Z,-6.20
2023-02-28T01:41:10.878Z,-6.20
2023-02-28T01:43:57.379Z,-6.30
2023-02-28T01:46:27.808Z,-6.30
2023-02-28T01:49:05.148Z,-6.30
2023-02-28T01:51:41.028Z,-6.30
2023-02-28T01:54:16.463Z,-6.30
2023-02-28T01:56:49.805Z,-6.30
2023-02-28T01:59:25.465Z,-6.30
2023-02-28T02:01:56.064Z,-6.40
2023-02-28T02:04:29.424Z,-6.40
2023-02-28T02:07:02.681Z,-6.40
2023-02-28T02:09:33.524Z,-6.40
2023-02-28T02:12:16.400Z,-6.40
2023-02-28T02:15:01.894Z,-6.50
2023-02-28T02:17:38.722Z,-6.50
2023-02-28T02:20:48.222Z,-6.50
2023-02-28T02:23:51.885Z,-6.50
2023-02-28T02:26:49.630Z,-6.50
2023-02-28T02:29:49.310Z,-6.50
2023-02-28T02:32:48.068Z,-6.50
2023-02-28T02:35:28.712Z,-6.60
2023-02-28T02:38:09.879Z,-6.60
2023-02-28T02:40:46.507Z,-6.60
2023-02-28T02:43:22.680Z,-6.60
2023-02-28T02:45:57.234Z,-6.60
2023-02-28T02:48:31.294Z,-6.60
2023-02-28T02:51:06.452Z,-6.70
2023-02-28T02:53:41.298Z,-6.70
2023-02-28T02:56:12.142Z,-6.70
2023-02-28T02:58:45.774Z,-6.80
2023-02-28T03:01:19.869Z,-6.80
2023-02-28T03:03:50.232Z,-6.80
2023-02-28T03:06:21.997Z,-6.80
2023-02-28T03:08:52.049Z,-6.80
2023-02-28T03:11:22.219Z,-6.80
2023-02-28T03:14:29.396Z,-6.80
2023-02-28T03:17:32.790Z,-6.80
2023-02-28T03:20:10.599Z,-6.80
2023-02-28T03:22:58.612Z,-6.90
2023-02-28T03:25:36.839Z,-6.90
2023-02-28T03:28:12.352Z,-6.90
2023-02-28T03:30:55.334Z,-6.90
2023-02-28T03:33:27.628Z,-6.90
2023-02-28T03:36:05.185Z,-6.90
2023-02-28T03:38:40.388Z,-6.90
2023-02-28T03:41:21.977Z,-6.90
2023-02-28T03:43:57.435Z,-6.90
2023-02-28T03:46:33.591Z,-6.90
2023-02-28T03:49:11.670Z,-6.90
2023-02-28T03:51:43.458Z,-6.90
2023-02-28T03:54:19.306Z,-6.90
2023-02-28T03:56:55.822Z,-7.00
2023-02-28T03:59:31.921Z,-7.00
2023-02-28T04:02:02.148Z,-7.00
2023-02-28T04:04:32.583Z,-7.00
2023-02-28T04:07:08.120Z,-7.00
2023-02-28T04:09:40.065Z,-7.00
2023-02-28T04:12:10.527Z,-7.00
2023-02-28T04:15:12.218Z,-7.00
2023-02-28T04:17:42.259Z,-7.00
2023-02-28T04:20:13.765Z,-7.00
2023-02-28T04:22:43.954Z,-7.10
2023-02-28T04:25:15.670Z,-7.00
2023-02-28T04:27:46.518Z,-7.10
2023-02-28T04:30:17.618Z,-7.10
2023-02-28T04:32:47.693Z,-7.10
2023-02-28T04:35:18.975Z,-7.10
2023-02-28T04:37:49.252Z,-7.10
2023-02-28T04:40:21.283Z,-7.10
2023-02-28T04:42:51.334Z,-7.10
2023-02-28T04:45:21.493Z,-7.10
2023-02-28T04:47:51.489Z,-7.10
2023-02-28T04:50:22.105Z,-7.10
2023-02-28T04:52:52.205Z,-7.10
2023-02-28T04:55:24.051Z,-7.10
2023-02-28T04:57:54.093Z,-7.10
2023-02-28T05:00:24.862Z,-7.10
2023-02-28T05:02:55.269Z,-7.10
2023-02-28T05:05:25.397Z,-7.10
2023-02-28T05:07:57.227Z,-7.10
2023-02-28T05:10:28.915Z,-7.10
2023-02-28T05:12:59.002Z,-7.10
2023-02-28T05:15:29.245Z,-7.10
2023-02-28T05:17:59.342Z,-7.10
2023-02-28T05:20:29.759Z,-7.10
2023-02-28T05:23:06.910Z,-7.20
2023-02-28T05:25:38.690Z,-7.10
2023-02-28T05:28:08.769Z,-7.10
2023-02-28T05:30:38.855Z,-7.10
2023-02-28T05:33:08.922Z,-7.10
2023-02-28T05:35:41.881Z,-7.10
2023-02-28T05:38:12.115Z,-7.10
2023-02-28T05:40:44.802Z,-7.10
2023-02-28T05:43:15.463Z,-7.10
2023-02-28T05:45:45.578Z,-7.10
2023-02-28T05:48:15.668Z,-7.10
2023-02-28T05:50:47.653Z,-7.10
2023-02-28T05:53:17.695Z,-7.00
2023-02-28T05:55:49.387Z,-7.00
2023-02-28T05:58:20.330Z,-7.00
2023-02-28T06:00:50.740Z,-7.00
2023-02-28T06:03:20.842Z,-7.00
2023-02-28T06:05:51.536Z,-6.90
2023-02-28T06:08:22.064Z,-6.90
2023-02-28T06:10:54.358Z,-6.90
2023-02-28T06:13:24.561Z,-6.90
2023-02-28T06:15:54.775Z,-6.90
2023-02-28T06:18:24.865Z,-6.90
2023-02-28T06:20:57.569Z,-6.80
2023-02-28T06:23:28.011Z,-6.80
2023-02-28T06:26:00.049Z,-6.80
2023-02-28T06:28:30.140Z,-6.80
2023-02-28T06:31:00.303Z,-6.80
2023-02-28T06:33:30.748Z,-6.80
2023-02-28T06:36:01.005Z,-6.80
2023-02-28T06:38:31.056Z,-6.80
2023-02-28T06:41:04.143Z,-6.70
2023-02-28T06:43:36.979Z,-6.70
2023-02-28T06:46:09.799Z,-6.60
2023-02-28T06:48:40.205Z,-6.60
2023-02-28T06:51:13.811Z,-6.60
2023-02-28T06:53:44.366Z,-6.60
2023-02-28T06:56:17.209Z,-6.60
2023-02-28T06:58:50.496Z,-6.60
2023-02-28T07:01:21.074Z,-6.50
2023-02-28T07:03:53.659Z,-6.50
2023-02-28T07:06:24.211Z,-6.50
2023-02-28T07:08:55.309Z,-6.50
2023-02-28T07:11:31.045Z,-6.60
2023-02-28T07:14:01.923Z,-6.60
2023-02-28T07:16:33.268Z,-6.60
2023-02-28T07:19:03.311Z,-6.60
2023-02-28T07:21:33.547Z,-6.60
2023-02-28T07:24:04.292Z,-6.60
2023-02-28T07:26:37.157Z,-6.60
2023-02-28T07:29:07.969Z,-6.60
2023-02-28T07:31:38.665Z,-6.60
2023-02-28T07:34:09.321Z,-6.60
2023-02-28T07:36:39.614Z,-6.60
2023-02-28T07:39:10.925Z,-6.60
2023-02-28T07:41:45.055Z,-6.60
2023-02-28T07:44:15.437Z,-6.60
2023-02-28T07:46:45.642Z,-6.60
2023-02-28T07:49:15.688Z,-6.60
2023-02-28T07:51:46.106Z,-6.60
2023-02-28T07:54:16.156Z,-6.60
2023-02-28T07:56:48.005Z,-6.60
2023-02-28T07:59:18.043Z,-6.60
2023-02-28T08:01:48.177Z,-6.60
2023-02-28T08:04:18.177Z,-6.60
2023-02-28T08:06:48.338Z,-6.60
2023-02-28T08:09:18.580Z,-6.60
2023-02-28T08:11:50.254Z,-6.60
2023-02-28T08:14:20.434Z,-6.60
2023-02-28T08:16:50.523Z,-6.60
2023-02-28T08:19:20.575Z,-6.60
2023-02-28T08:21:50.646Z,-6.60
2023-02-28T08:24:20.680Z,-6.60
2023-02-28T08:26:53.350Z,-6.60
2023-02-28T08:29:23.543Z,-6.60
2023-02-28T08:31:53.948Z,-6.60
2023-02-28T08:34:24.742Z,-6.60
2023-02-28T08:36:55.581Z,-6.50
2023-02-28T08:39:25.660Z,-6.60
2023-02-28T08:42:07.253Z,-6.50
2023-02-28T08:44:38.083Z,-6.50
2023-02-28T08:47:08.294Z,-6.50
2023-02-28T08:49:39.138Z,-6.50
2023-02-28T08:52:09.363Z,-6.40
2023-02-28T08:54:39.693Z,-6.40
2023-02-28T08:57:11.595Z,-6.40
2023-02-28T08:59:41.737Z,-6.40
2023-02-28T09:02:15.771Z,-6.40
2023-02-28T09:04:46.993Z,-6.30
2023-02-28T09:07:17.261Z,-6.30
2023-02-28T09:09:56.575Z,-6.30
2023-02-28T09:12:29.294Z,-6.30
2023-02-28T09:14:59.548Z,-6.30
2023-02-28T09:17:30.870Z,-6.30
2023-02-28T09:20:01.367Z,-6.40
2023-02-28T09:22:31.777Z,-6.40
2023-02-28T09:25:01.816Z,-6.30
2023-02-28T09:27:33.576Z,-6.30
2023-02-28T09:30:03.792Z,-6.30
2023-02-28T09:32:33.886Z,-6.30
2023-02-28T09:35:04.013Z,-6.30
2023-02-28T09:37:34.160Z,-6.30
2023-02-28T09:40:04.656Z,-6.30
2023-02-28T09:42:37.367Z,-6.20
2023-02-28T09:45:16.598Z,-6.20
2023-02-28T09:47:50.083Z,-6.20
2023-02-28T09:50:31.138Z,-6.20
2023-02-28T09:53:02.431Z,-6.20
2023-02-28T09:55:46.289Z,-6.20
2023-02-28T09:58:25.795Z,-6.20
2023-02-28T10:01:03.667Z,-6.30
2023-02-28T10:03:39.390Z,-6.30
2023-02-28T10:06:15.384Z,-6.30
2023-02-28T10:08:52.238Z,-6.30
2023-02-28T10:11:24.547Z,-6.30
2023-02-28T10:14:03.099Z,-6.30
2023-02-28T10:16:38.208Z,-6.40
2023-02-28T10:19:13.031Z,-6.40
2023-02-28T10:21:48.467Z,-6.40
2023-02-28T10:24:26.656Z,-6.40
2023-02-28T10:27:03.001Z,-6.40
2023-02-28T10:29:36.782Z,-6.40
2023-02-28T10:32:08.836Z,-6.40
2023-02-28T10:34:39.339Z,-6.30
2023-02-28T10:37:11.014Z,-6.30
2023-02-28T10:39:43.306Z,-6.30
2023-02-28T10:42:31.188Z,-6.30
2023-02-28T10:45:16.060Z,-6.30
2023-02-28T10:47:57.092Z,-6.30
2023-02-28T10:50:45.920Z,-6.30
2023-02-28T10:53:44.848Z,-6.30
2023-02-28T10:56:26.433Z,-6.20
2023-02-28T10:58:59.002Z,-6.20
2023-02-28T11:01:43.305Z,-6.10
2023-02-28T11:04:23.225Z,-6.10
2023-02-28T11:07:01.580Z,-6.10
2023-02-28T11:09:36.455Z,-6.10
2023-02-28T11:12:10.696Z,-6.00
2023-02-28T11:14:51.094Z,-6.00
2023-02-28T11:17:26.827Z,-6.00
2023-02-28T11:20:00.940Z,-5.90
2023-02-28T11:22:34.906Z,-5.90
2023-02-28T11:25:11.046Z,-5.90
2023-02-28T11:27:52.405Z,-5.90
2023-02-28T11:30:37.791Z,-5.90
2023-02-28T11:33:26.552Z,-6.00
2023-02-28T11:36:01.617Z,-6.00
2023-02-28T11:38:31.980Z,-6.00
2023-02-28T11:41:25.194Z,-6.00
2023-02-28T11:44:09.556Z,-6.00
2023-02-28T11:46:44.474Z,-6.00
2023-02-28T11:49:32.629Z,-6.00
2023-02-28T11:52:10.280Z,-5.90
2023-02-28T11:55:05.626Z,-5.90
2023-02-28T11:57:45.261Z,-5.90
2023-02-28T12:00:32.915Z,-5.90
2023-02-28T12:03:15.505Z,-5.90
2023-02-28T12:05:50.075Z,-5.90
2023-02-28T12:08:36.086Z,-5.90
2023-02-28T12:11:15.560Z,-5.90
2023-02-28T12:13:53.754Z,-5.90
2023-02-28T12:16:33.604Z,-5.80
2023-02-28T12:19:20.897Z,-5.80
2023-02-28T12:22:22.876Z,-5.80
2023-02-28T12:25:22.641Z,-5.70
2023-02-28T12:27:56.398Z,-5.60
2023-02-28T12:30:29.370Z,-5.50
2023-02-28T12:33:04.624Z,-5.50
2023-02-28T12:35:40.826Z,-5.40
2023-02-28T12:38:16.256Z,-5.40
2023-02-28T12:40:50.817Z,-5.40
2023-02-28T12:43:23.100Z,-5.30
2023-02-28T12:45:57.125Z,-5.30
2023-02-28T12:48:34.813Z,-5.20
2023-02-28T12:51:08.400Z,-5.10
2023-02-28T12:53:54.115Z,-5.10
2023-02-28T12:56:36.771Z,-5.00
2023-02-28T12:59:16.575Z,-5.00
2023-02-28T13:02:19.482Z,-5.00
2023-02-28T13:05:23.188Z,-5.00
2023-02-28T13:08:23.765Z,-5.00
2023-02-28T13:10:57.473Z,-4.90
2023-02-28T13:13:31.174Z,-4.80
2023-02-28T13:16:06.623Z,-4.70
2023-02-28T13:18:41.313Z,-4.60
2023-02-28T13:21:12.882Z,-4.50
2023-02-28T13:24:00.518Z,-4.30
2023-02-28T13:27:09.473Z,-4.40
2023-02-28T13:29:43.924Z,-4.40
2023-02-28T13:32:38.186Z,-4.40
2023-02-28T13:35:46.536Z,-4.30
2023-02-28T13:38:40.029Z,-4.10
2023-02-28T13:41:44.738Z,-4.10
2023-02-28T13:44:18.570Z,-4.00
2023-02-28T13:47:26.278Z,-3.90
2023-02-28T13:49:56.829Z,-3.80
2023-02-28T13:52:28.425Z,-3.70
2023-02-28T13:55:22.508Z,-3.60
2023-02-28T13:58:10.918Z,-3.50
2023-02-28T14:00:54.734Z,-3.60
2023-02-28T14:03:45.229Z,-3.50
2023-02-28T14:06:25.411Z,-3.40
2023-02-28T14:09:00.461Z,-3.40
2023-02-28T14:11:37.033Z,-3.20
2023-02-28T14:14:08.676Z,-3.10
2023-02-28T14:16:44.778Z,-3.00
2023-02-28T14:19:18.997Z,-2.80
2023-02-28T14:22:02.661Z,-2.90
2023-02-28T14:24:54.066Z,-2.80
2023-02-28T14:27:44.546Z,-2.60
2023-02-28T14:34:34.697Z,-2.50
2023-02-28T14:37:06.939Z,-2.40
2023-02-28T14:39:39.174Z,-2.20
2023-02-28T14:42:33.720Z,-1.90
2023-02-28T14:45:04.249Z,-1.60
2023-02-28T14:47:36.940Z,-1.60
2023-02-28T14:50:11.362Z,-1.40
2023-02-28T14:52:41.460Z,-1.20
2023-02-28T14:55:18.556Z,-1.10
2023-02-28T14:57:56.524Z,-0.90
2023-02-28T15:00:29.366Z,-0.70
2023-02-28T15:03:01.613Z,-0.80
2023-02-28T15:05:35.994Z,-0.70
2023-02-28T15:08:10.473Z,-0.70
2023-02-28T15:10:44.801Z,-1.00
2023-02-28T15:13:17.318Z,-0.90
2023-02-28T15:16:03.514Z,-0.80
2023-02-28T15:18:42.484Z,-1.00
2023-02-28T15:21:18.944Z,-0.70
2023-02-28T15:23:52.114Z,-0.70
2023-02-28T15:26:25.527Z,-0.60
2023-02-28T15:29:01.349Z,-0.30
2023-02-28T15:31:46.987Z,-0.10
2023-02-28T15:34:36.986Z,0.10
2023-02-28T15:37:33.868Z,0.20
2023-02-28T15:40:16.227Z,0.20
2023-02-28T15:42:46.872Z,0.20
2023-02-28T15:45:39.819Z,0.50
2023-02-28T15:48:20.248Z,0.40
2023-02-28T15:50:54.751Z,0.50
2023-02-28T15:53:29.484Z,0.50
2023-02-28T15:56:03.856Z,0.60
2023-02-28T15:58:34.270Z,0.70
2023-02-28T16:01:10.882Z,0.70
2023-02-28T16:03:47.756Z,0.70
2023-02-28T16:06:35.377Z,0.60
2023-02-28T16:09:10.262Z,0.50
2023-02-28T16:11:44.148Z,0.70
2023-02-28T16:14:20.908Z,0.90
2023-02-28T16:16:53.411Z,0.80
2023-02-28T16:19:26.085Z,1.00
2023-02-28T16:21:56.191Z,0.90
2023-02-28T16:24:27.931Z,0.70
2023-02-28T16:27:00.613Z,0.90
2023-02-28T16:29:32.717Z,0.90
2023-02-28T16:32:03.255Z,0.90
2023-02-28T16:34:34.696Z,0.90
2023-02-28T16:37:05.017Z,1.20
2023-02-28T16:39:37.331Z,1.00
2023-02-28T16:42:08.635Z,0.80
2023-02-28T16:44:39.599Z,0.70
2023-02-28T16:47:09.660Z,0.80
2023-02-28T16:49:39.894Z,1.00
2023-02-28T16:52:09.925Z,1.30
2023-02-28T16:54:41.757Z,1.20
2023-02-28T16:57:20.795Z,1.20
2023-02-28T16:59:52.381Z,1.20
2023-02-28T17:02:23.198Z,1.40
2023-02-28T17:04:53.542Z,1.50
2023-02-28T17:07:23.620Z,1.30
2023-02-28T17:09:55.484Z,1.20
2023-02-28T17:12:25.529Z,0.90
2023-02-28T17:14:56.096Z,0.80
2023-02-28T17:17:33.473Z,0.70
2023-02-28T17:20:03.889Z,0.50
2023-02-28T17:22:33.857Z,0.60
2023-02-28T17:25:05.663Z,0.60
2023-02-28T17:27:35.733Z,0.80
2023-02-28T17:30:06.380Z,0.90
2023-02-28T17:32:36.475Z,0.90
2023-02-28T17:35:07.757Z,0.90
2023-02-28T17:37:37.904Z,0.80
2023-02-28T17:40:15.931Z,0.60
2023-02-28T17:42:46.239Z,0.80
2023-02-28T17:45:18.361Z,0.80
2023-02-28T17:47:50.764Z,1.00
2023-02-28T17:50:23.100Z,1.30
2023-02-28T17:52:53.476Z,1.50
2023-02-28T17:55:25.441Z,1.30
2023-02-28T17:57:55.609Z,1.20
2023-02-28T18:00:27.110Z,0.90
2023-02-28T18:02:57.456Z,0.70
2023-02-28T18:05:27.624Z,0.30
2023-02-28T18:07:57.694Z,0.30
2023-02-28T18:10:29.546Z,0.00
2023-02-28T18:12:59.963Z,0.00
2023-02-28T18:15:30.114Z,0.20
2023-02-28T18:18:00.886Z,0.40
2023-02-28T18:20:31.004Z,0.60
2023-02-28T18:23:01.057Z,0.50
2023-02-28T18:25:32.862Z,0.30
2023-02-28T18:28:03.105Z,0.30
2023-02-28T18:30:38.090Z,0.40
2023-02-28T18:33:08.417Z,0.50
2023-02-28T18:35:40.011Z,0.60
2023-02-28T18:38:12.246Z,0.80
2023-02-28T18:40:44.702Z,1.00
2023-02-28T18:43:14.801Z,1.10
2023-02-28T18:45:45.698Z,1.30
2023-02-28T18:48:15.956Z,1.40
2023-02-28T18:50:46.081Z,1.30
2023-02-28T18:53:16.132Z,1.50
2023-02-28T18:55:48.089Z,1.50
2023-02-28T18:58:18.482Z,1.70
2023-02-28T19:00:50.528Z,1.90
2023-02-28T19:03:20.800Z,2.10
2023-02-28T19:05:51.063Z,2.00
2023-02-28T19:08:21.266Z,2.00
2023-02-28T19:10:53.174Z,1.80
2023-02-28T19:13:23.444Z,1.60
2023-02-28T19:15:56.760Z,1.70
2023-02-28T19:18:27.739Z,1.50
2023-02-28T19:20:57.874Z,1.70
2023-02-28T19:23:28.041Z,1.80
2023-02-28T19:25:59.761Z,1.80
2023-02-28T19:28:32.270Z,1.60
2023-02-28T19:31:02.373Z,1.40
2023-02-28T19:33:32.470Z,1.10
2023-02-28T19:36:03.552Z,1.10
2023-02-28T19:38:33.789Z,1.10
2023-02-28T19:41:06.721Z,1.10
2023-02-28T19:43:36.808Z,1.10
2023-02-28T19:46:07.268Z,1.20
2023-02-28T19:48:37.786Z,1.10
2023-02-28T19:51:10.256Z,1.20
2023-02-28T19:53:41.565Z,1.10
2023-02-28T19:56:14.100Z,1.30
2023-02-28T19:58:44.179Z,1.30
2023-02-28T20:01:16.085Z,1.20
2023-02-28T20:03:49.241Z,1.20
2023-02-28T20:06:19.826Z,1.20
2023-02-28T20:08:49.868Z,1.40
2023-02-28T20:11:21.935Z,1.80
2023-02-28T20:13:54.629Z,2.00
2023-02-28T20:16:30.002Z,2.10
2023-02-28T20:19:00.809Z,2.10
2023-02-28T20:21:31.343Z,2.10
2023-02-28T20:24:01.468Z,2.20
2023-02-28T20:26:33.371Z,2.30
2023-02-28T20:29:03.647Z,2.10
2023-02-28T20:31:34.531Z,1.90
2023-02-28T20:34:04.562Z,1.90
2023-02-28T20:36:35.450Z,1.70
2023-02-28T20:39:05.801Z,1.70
2023-02-28T20:41:37.689Z,1.90
2023-02-28T20:44:07.935Z,1.90
2023-02-28T20:46:38.236Z,2.00
2023-02-28T20:49:08.373Z,2.10
2023-02-28T20:51:40.902Z,2.10
2023-02-28T20:54:12.435Z,2.20
2023-02-28T20:56:44.408Z,2.30
2023-02-28T20:59:14.791Z,2.50
2023-02-28T21:01:45.020Z,2.20
2023-02-28T21:04:15.044Z,1.90
2023-02-28T21:06:47.760Z,1.70
2023-02-28T21:09:18.287Z,1.60
2023-02-28T21:11:50.359Z,1.60
2023-02-28T21:14:21.110Z,1.50
2023-02-28T21:16:51.225Z,1.40
2023-02-28T21:19:21.290Z,1.40
2023-02-28T21:21:51.520Z,1.40
2023-02-28T21:24:22.796Z,1.40
2023-02-28T21:26:54.662Z,1.30
2023-02-28T21:29:24.721Z,1.20
2023-02-28T21:31:55.514Z,1.20
2023-02-28T21:34:27.581Z,1.20
2023-02-28T21:36:58.094Z,1.10
2023-02-28T21:39:31.151Z,1.10
2023-02-28T21:42:04.464Z,1.00
2023-02-28T21:44:36.441Z,1.10
2023-02-28T21:47:06.618Z,1.20
2023-02-28T21:49:37.003Z,1.10
2023-02-28T21:52:07.447Z,1.10
2023-02-28T21:54:37.529Z,1.00
2023-02-28T21:57:11.013Z,0.90
2023-02-28T21:59:42.393Z,0.80
2023-02-28T22:02:13.218Z,0.70
2023-02-28T22:04:43.652Z,0.50
2023-02-28T22:07:13.845Z,0.30
2023-02-28T22:09:44.136Z,0.10
2023-02-28T22:12:15.841Z,0.10
2023-02-28T22:14:47.003Z,0.00
2023-02-28T22:17:17.129Z,0.00
2023-02-28T22:19:47.141Z,0.00
2023-02-28T22:22:17.464Z,0.00
2023-02-28T22:24:48.982Z,0.00
2023-02-28T22:27:21.668Z,0.00
2023-02-28T22:29:51.736Z,-0.10
2023-02-28T22:32:21.972Z,-0.10
2023-02-28T22:34:53.962Z,-0.10
2023-02-28T22:37:24.104Z,-0.10
2023-02-28T22:39:54.111Z,-0.20
2023-02-28T22:42:25.841Z,-0.20
2023-02-28T22:44:55.923Z,-0.20
2023-02-28T22:47:27.152Z,-0.30
2023-02-28T22:49:57.289Z,-0.30
2023-02-28T22:52:27.559Z,-0.30
2023-02-28T22:54:57.607Z,-0.30
2023-02-28T22:57:29.492Z,-0.30
2023-02-28T23:00:02.632Z,-0.40
2023-02-28T23:02:36.068Z,-0.40
2023-02-28T23:05:06.303Z,-0.30
2023-02-28T23:07:36.393Z,-0.40
2023-02-28T23:10:08.501Z,-0.30
2023-02-28T23:12:51.137Z,-0.40
2023-02-28T23:15:21.969Z,-0.30
2023-02-28T23:17:52.587Z,-0.30
2023-02-28T23:20:23.871Z,-0.30
2023-02-28T23:22:54.106Z,-0.20
2023-02-28T23:25:24.759Z,-0.20
2023-02-28T23:27:56.504Z,-0.30
2023-02-28T23:30:26.680Z,-0.30
2023-02-28T23:32:56.856Z,-0.20
2023-02-28T23:35:27.558Z,-0.30
2023-02-28T23:38:00.035Z,-0.30
2023-02-28T23:40:30.516Z,-0.30
2023-02-28T23:43:02.529Z,-0.30
2023-02-28T23:45:32.843Z,-0.30
2023-02-28T23:48:03.017Z,-0.30
2023-02-28T23:50:33.129Z,-0.30
2023-02-28T23:53:03.386Z,-0.30
2023-02-28T23:55:34.190Z,-0.30
2023-02-28T23:58:05.928Z,-0.30
